Terminal Aerodrome Forecast
Issued by NWS

Home | Current Version | Previous Version | Text Only | Print | Product List | Glossary On
Versions: 1 2 3 4 5 6 7 8 9 10 11 12 13
322
FTUS44 KLZK 032320
TAFPBF
TAF
KPBF 032320Z 0400/0424 07008KT P6SM -RA BKN008 OVC015
      TEMPO 0400/0404 4SM BR OVC008
     FM040400 07006KT 3SM -RA BR OVC004
     FM040800 04005KT 2SM BR VCSH OVC004
     FM041100 03004KT 1SM BR VCSH OVC007
     FM042000 35006KT P6SM BKN008 OVC015=

USA.gov is the U.S. government's official web portal to all federal, state and local government web resources and services.